createdAt,value
2023-04-22T00:02:03.716Z,101251.00
2023-04-22T00:04:30.527Z,101247.28
2023-04-22T00:06:57.210Z,101239.13
2023-04-22T00:09:24.330Z,101175.88
2023-04-22T00:11:51.975Z,101229.56
2023-04-22T00:14:19.049Z,101223.56
2023-04-22T00:16:46.146Z,101223.16
2023-04-22T00:19:15.317Z,101217.94
2023-04-22T00:21:42.225Z,101218.78
2023-04-22T00:24:08.915Z,101201.72
2023-04-22T00:26:35.602Z,101213.97
2023-04-22T00:29:02.193Z,101218.53
2023-04-22T00:31:28.819Z,101206.97
2023-04-22T00:33:55.698Z,101163.38
2023-04-22T00:36:22.253Z,101162.28
2023-04-22T00:38:52.636Z,101215.34
2023-04-22T00:41:19.348Z,101199.50
2023-04-22T00:43:46.748Z,101205.66
2023-04-22T00:46:16.039Z,101196.34
2023-04-22T00:48:43.137Z,101195.00
2023-04-22T00:51:09.787Z,101192.91
2023-04-22T00:53:36.450Z,101130.16
2023-04-22T00:56:03.972Z,101098.56
2023-04-22T00:58:32.306Z,101180.38
2023-04-22T01:00:59.112Z,101183.09
2023-04-22T01:03:28.657Z,101178.94
2023-04-22T01:05:56.987Z,101130.41
2023-04-22T01:08:29.972Z,101170.84
2023-04-22T01:10:58.118Z,101178.81
2023-04-22T01:13:24.909Z,101121.81
2023-04-22T01:15:53.428Z,101123.69
2023-04-22T01:18:20.113Z,101168.50
2023-04-22T01:20:46.766Z,101132.38
2023-04-22T01:23:21.439Z,101169.13
2023-04-22T01:25:48.904Z,101159.81
2023-04-22T01:28:17.226Z,101152.47
2023-04-22T01:30:44.271Z,101165.22
2023-04-22T01:33:11.835Z,101161.53
2023-04-22T01:35:39.064Z,101157.00
2023-04-22T01:38:08.350Z,101160.69
2023-04-22T01:40:35.520Z,101133.25
2023-04-22T01:43:02.921Z,101145.47
2023-04-22T01:45:30.032Z,101092.94
2023-04-22T01:47:56.735Z,101104.94
2023-04-22T01:50:24.091Z,101140.09
2023-04-22T01:52:51.024Z,101115.84
2023-04-22T01:55:17.753Z,101134.69
2023-04-22T01:57:44.669Z,101135.06
2023-04-22T02:00:11.905Z,101058.25
2023-04-22T02:02:38.802Z,101119.88
2023-04-22T02:05:07.455Z,101113.25
2023-04-22T02:07:34.432Z,101144.13
2023-04-22T02:10:02.206Z,101120.72
2023-04-22T02:12:28.777Z,101111.69
2023-04-22T02:14:55.482Z,101123.53
2023-04-22T02:17:22.455Z,101113.75
2023-04-22T02:19:50.249Z,101046.88
2023-04-22T02:22:17.562Z,101113.88
2023-04-22T02:24:44.295Z,101135.56
2023-04-22T02:27:10.988Z,101116.44
2023-04-22T02:29:37.917Z,101064.28
2023-04-22T02:32:04.694Z,101090.88
2023-04-22T02:34:31.372Z,101063.53
2023-04-22T02:36:57.953Z,101100.88
2023-04-22T02:39:25.647Z,101103.09
2023-04-22T02:41:52.383Z,101096.34
2023-04-22T02:44:18.977Z,101105.91
2023-04-22T02:46:45.811Z,101075.91
2023-04-22T02:49:12.432Z,101048.97
2023-04-22T02:51:41.893Z,101091.09
2023-04-22T02:54:08.488Z,101081.03
2023-04-22T02:56:35.189Z,101075.28
2023-04-22T02:59:01.847Z,101070.75
2023-04-22T03:01:29.155Z,101070.50
2023-04-22T03:03:57.396Z,101005.75
2023-04-22T03:06:24.086Z,101081.16
2023-04-22T03:08:51.002Z,101078.97
2023-04-22T03:11:17.536Z,101071.13
2023-04-22T03:13:44.129Z,101052.88
2023-04-22T03:16:10.919Z,101079.69
2023-04-22T03:18:38.384Z,100967.06
2023-04-22T03:21:05.112Z,101056.44
2023-04-22T03:23:31.768Z,101057.16
2023-04-22T03:25:58.372Z,101045.31
2023-04-22T03:28:25.031Z,100999.88
2023-04-22T03:30:52.271Z,100994.75
2023-04-22T03:33:19.054Z,101029.75
2023-04-22T03:35:48.728Z,100999.75
2023-04-22T03:38:15.766Z,101049.19
2023-04-22T03:40:43.089Z,101047.13
2023-04-22T03:43:09.667Z,101032.94
2023-04-22T03:45:36.322Z,101044.81
2023-04-22T03:48:03.026Z,101031.97
2023-04-22T03:50:29.721Z,101029.50
2023-04-22T03:52:56.361Z,101046.91
2023-04-22T03:55:22.948Z,101002.59
2023-04-22T03:57:49.524Z,101031.56
2023-04-22T04:00:16.237Z,100940.53
2023-04-22T04:02:43.039Z,101015.94
2023-04-22T04:05:11.468Z,100984.34
2023-04-22T04:07:38.425Z,100971.69
2023-04-22T04:10:05.746Z,101015.16
2023-04-22T04:12:32.346Z,101018.59
2023-04-22T04:14:58.929Z,100965.00
2023-04-22T04:17:26.097Z,101018.63
2023-04-22T04:19:54.161Z,100943.81
2023-04-22T04:22:21.082Z,100977.84
2023-04-22T04:24:47.993Z,101021.88
2023-04-22T04:27:14.619Z,100969.28
2023-04-22T04:29:42.370Z,101016.16
2023-04-22T04:32:10.121Z,101026.19
2023-04-22T04:34:37.972Z,100944.78
2023-04-22T04:37:04.554Z,101013.94
2023-04-22T04:39:31.235Z,101001.56
2023-04-22T04:41:59.018Z,100998.75
2023-04-22T04:44:31.894Z,100995.91
2023-04-22T04:46:58.961Z,100987.34
2023-04-22T04:49:26.571Z,100932.69
2023-04-22T04:51:53.174Z,101000.56
2023-04-22T04:54:19.717Z,101006.16
2023-04-22T04:56:46.323Z,101001.00
2023-04-22T04:59:12.916Z,101001.13
2023-04-22T05:01:39.514Z,100990.72
2023-04-22T05:04:06.653Z,101013.22
2023-04-22T05:06:33.817Z,100999.34
2023-04-22T05:09:00.433Z,100959.50
2023-04-22T05:11:27.303Z,101003.78
2023-04-22T05:13:53.932Z,100949.81
2023-04-22T05:16:20.603Z,101000.41
2023-04-22T05:18:47.281Z,100995.97
2023-04-22T05:21:13.906Z,100989.84
2023-04-22T05:23:40.488Z,100995.16
2023-04-22T05:26:07.184Z,101001.38
2023-04-22T05:28:33.825Z,101004.56
2023-04-22T05:31:00.511Z,101017.25
2023-04-22T05:33:27.357Z,100967.66
2023-04-22T05:35:54.080Z,100980.28
2023-04-22T05:38:20.704Z,100993.38
2023-04-22T05:40:47.284Z,100982.31
2023-04-22T05:43:14.032Z,100974.16
2023-04-22T05:45:40.765Z,100955.84
2023-04-22T05:48:07.433Z,100982.72
2023-04-22T05:50:34.022Z,100987.56
2023-04-22T05:53:00.667Z,100983.03
2023-04-22T05:55:27.452Z,100971.56
2023-04-22T05:57:54.012Z,100964.63
2023-04-22T06:00:20.790Z,100982.28
2023-04-22T06:02:47.487Z,100959.34
2023-04-22T06:05:14.312Z,100975.50
2023-04-22T06:07:40.981Z,100959.00
2023-04-22T06:10:08.507Z,100939.72
2023-04-22T06:12:35.708Z,100946.91
2023-04-22T06:15:02.407Z,100933.22
2023-04-22T06:17:29.221Z,100926.97
2023-04-22T06:19:55.815Z,100918.88
2023-04-22T06:22:22.556Z,100968.09
2023-04-22T06:24:49.101Z,100958.16
2023-04-22T06:27:15.758Z,100973.81
2023-04-22T06:29:42.331Z,100973.78
2023-04-22T06:32:08.897Z,100961.19
2023-04-22T06:34:35.576Z,100960.78
2023-04-22T06:37:02.132Z,100956.91
2023-04-22T06:39:28.697Z,100956.13
2023-04-22T06:41:55.555Z,100921.25
2023-04-22T06:44:22.451Z,100965.91
2023-04-22T06:46:49.118Z,100962.81
2023-04-22T06:49:15.824Z,100968.59
2023-04-22T06:51:42.483Z,100958.38
2023-04-22T06:54:09.442Z,100962.31
2023-04-22T06:56:36.382Z,100912.03
2023-04-22T06:59:03.215Z,100957.72
2023-04-22T07:01:29.886Z,100950.13
2023-04-22T07:03:56.867Z,100934.75
2023-04-22T07:06:23.603Z,100901.59
2023-04-22T07:08:50.416Z,100965.13
2023-04-22T07:11:17.008Z,100941.19
2023-04-22T07:13:43.618Z,100943.78
2023-04-22T07:16:10.455Z,100879.53
2023-04-22T07:18:37.220Z,100946.00
2023-04-22T07:21:06.562Z,100946.66
2023-04-22T07:23:33.148Z,100946.31
2023-04-22T07:25:59.889Z,100937.44
2023-04-22T07:28:26.700Z,100940.47
2023-04-22T07:30:54.555Z,100936.09
2023-04-22T07:33:21.419Z,100932.22
2023-04-22T07:35:48.762Z,100893.81
2023-04-22T07:38:15.579Z,100893.06
2023-04-22T07:40:42.268Z,100751.97
2023-04-22T07:43:08.871Z,100907.13
2023-04-22T07:45:35.714Z,100843.34
2023-04-22T07:48:03.603Z,100911.34
2023-04-22T07:50:30.341Z,100886.53
2023-04-22T07:52:57.061Z,100873.91
2023-04-22T07:55:23.663Z,100922.34
2023-04-22T07:57:50.260Z,100922.75
2023-04-22T08:00:17.294Z,100918.00
2023-04-22T08:02:44.466Z,100917.34
2023-04-22T08:05:11.835Z,100907.31
2023-04-22T08:07:38.514Z,100913.66
2023-04-22T08:10:06.284Z,100890.66
2023-04-22T08:12:32.921Z,100896.25
2023-04-22T08:14:59.531Z,100896.63
2023-04-22T08:17:27.069Z,100873.31
2023-04-22T08:19:53.700Z,100895.97
2023-04-22T08:22:20.263Z,100879.59
2023-04-22T08:24:46.861Z,100898.69
2023-04-22T08:27:13.610Z,100890.19
2023-04-22T08:29:40.527Z,100891.38
2023-04-22T08:32:07.935Z,100890.81
2023-04-22T08:34:34.669Z,100897.47
2023-04-22T08:37:01.407Z,100891.78
2023-04-22T08:39:28.221Z,100893.63
2023-04-22T08:41:56.430Z,100887.88
2023-04-22T08:44:23.174Z,100847.59
2023-04-22T08:46:51.079Z,100859.19
2023-04-22T08:49:19.298Z,100882.03
2023-04-22T08:51:46.301Z,100824.34
2023-04-22T08:54:12.897Z,100867.94
2023-04-22T08:56:42.811Z,100878.25
2023-04-22T08:59:13.138Z,100877.88
2023-04-22T09:01:43.455Z,100878.94
2023-04-22T09:04:11.285Z,100855.59
2023-04-22T09:06:39.199Z,100883.38
2023-04-22T09:09:06.310Z,100876.94
2023-04-22T09:11:33.615Z,100863.97
2023-04-22T09:14:00.465Z,100860.06
2023-04-22T09:16:27.162Z,100872.13
2023-04-22T09:18:53.757Z,100869.34
2023-04-22T09:21:20.487Z,100836.41
2023-04-22T09:23:52.074Z,100860.38
2023-04-22T09:26:24.931Z,100863.78
2023-04-22T09:28:59.350Z,100865.94
2023-04-22T09:31:26.484Z,100870.66
2023-04-22T09:33:56.983Z,100866.25
2023-04-22T09:36:27.474Z,100866.97
2023-04-22T09:38:56.430Z,100875.75
2023-04-22T09:41:33.816Z,100859.19
2023-04-22T09:44:02.573Z,100848.66
2023-04-22T09:46:30.936Z,100850.44
2023-04-22T09:48:59.489Z,100807.44
2023-04-22T09:51:27.716Z,100845.25
2023-04-22T09:54:06.550Z,100794.84
2023-04-22T09:56:53.003Z,100844.00
2023-04-22T09:59:31.754Z,100838.06
2023-04-22T10:02:04.234Z,100825.34
2023-04-22T10:04:31.526Z,100844.81
2023-04-22T10:06:58.462Z,100805.59
2023-04-22T10:09:25.714Z,100835.19
2023-04-22T10:11:54.195Z,100831.88
2023-04-22T10:14:24.538Z,100835.63
2023-04-22T10:16:57.713Z,100822.34
2023-04-22T10:19:25.824Z,100770.28
2023-04-22T10:21:58.582Z,100790.53
2023-04-22T10:24:29.207Z,100793.94
2023-04-22T10:27:03.055Z,100805.16
2023-04-22T10:29:39.018Z,100801.56
2023-04-22T10:32:09.724Z,100799.88
2023-04-22T10:34:41.122Z,100803.72
2023-04-22T10:37:11.692Z,100790.19
2023-04-22T10:39:40.802Z,100779.72
2023-04-22T10:42:10.842Z,100770.84
2023-04-22T10:44:54.900Z,100795.63
2023-04-22T10:47:33.128Z,100787.81
2023-04-22T10:50:31.802Z,100760.34
2023-04-22T10:53:00.668Z,100707.44
2023-04-22T10:55:52.035Z,100772.88
2023-04-22T10:58:20.887Z,100772.06
2023-04-22T11:03:24.863Z,100755.59
2023-04-22T11:06:18.451Z,100707.66
2023-04-22T11:08:47.309Z,100693.72
2023-04-22T11:11:14.523Z,100728.41
2023-04-22T11:13:43.977Z,100632.88
2023-04-22T11:16:11.002Z,100718.09
2023-04-22T11:18:38.059Z,100703.72
2023-04-22T11:21:06.802Z,100718.81
2023-04-22T11:23:33.491Z,100670.31
2023-04-22T11:26:03.992Z,100718.28
2023-04-22T11:28:31.676Z,100675.38
2023-04-22T11:31:06.716Z,100694.53
2023-04-22T11:33:34.820Z,100709.59
2023-04-22T11:36:01.790Z,100703.03
2023-04-22T11:38:28.511Z,100630.91
2023-04-22T11:40:57.959Z,100694.84
2023-04-22T11:43:24.947Z,100694.38
2023-04-22T11:45:51.926Z,100666.41
2023-04-22T11:48:18.832Z,100683.13
2023-04-22T11:50:45.811Z,100693.41
2023-04-22T11:53:15.483Z,100683.22
2023-04-22T11:55:43.228Z,100680.03
2023-04-22T11:58:15.946Z,100653.72
2023-04-22T12:00:51.598Z,100629.16
2023-04-22T12:03:23.283Z,100675.53
2023-04-22T12:05:55.884Z,100677.00
2023-04-22T12:08:30.756Z,100618.69
2023-04-22T12:10:59.592Z,100665.28
2023-04-22T12:13:27.535Z,100668.69
2023-04-22T12:16:02.976Z,100640.50
2023-04-22T12:18:37.495Z,100650.44
2023-04-22T12:21:07.246Z,100656.34
2023-04-22T12:23:53.668Z,100655.06
2023-04-22T12:26:25.350Z,100639.09
2023-04-22T12:28:53.893Z,100597.31
2023-04-22T12:31:21.810Z,100618.13
2023-04-22T12:33:48.898Z,100596.97
2023-04-22T12:36:15.963Z,100576.66
2023-04-22T12:38:42.603Z,100631.66
2023-04-22T12:41:09.557Z,100608.19
2023-04-22T12:43:37.055Z,100637.38
2023-04-22T12:46:04.554Z,100634.25
2023-04-22T12:48:31.877Z,100629.31
2023-04-22T12:50:58.838Z,100618.66
2023-04-22T12:53:27.393Z,100620.13
2023-04-22T12:55:54.428Z,100605.34
2023-04-22T12:58:21.158Z,100605.69
2023-04-22T13:00:47.844Z,100606.63
2023-04-22T13:03:14.673Z,100560.19
2023-04-22T13:05:41.515Z,100568.97
2023-04-22T13:08:08.415Z,100596.88
2023-04-22T13:10:35.553Z,100594.09
2023-04-22T13:13:18.010Z,100599.75
2023-04-22T13:15:47.834Z,100585.47
2023-04-22T13:18:16.904Z,100596.28
2023-04-22T13:20:43.714Z,100577.03
2023-04-22T13:23:13.305Z,100597.88
2023-04-22T13:25:40.329Z,100594.56
2023-04-22T13:28:07.145Z,100536.09
2023-04-22T13:30:33.755Z,100573.41
2023-04-22T13:33:00.472Z,100551.03
2023-04-22T13:35:27.075Z,100511.84
2023-04-22T13:37:53.822Z,100538.97
2023-04-22T13:40:20.578Z,100560.25
2023-04-22T13:42:47.349Z,100529.16
2023-04-22T13:45:13.989Z,100558.69
2023-04-22T13:47:40.851Z,100567.00
2023-04-22T13:50:09.296Z,100561.16
2023-04-22T13:52:35.928Z,100564.06
2023-04-22T13:55:06.292Z,100570.50
2023-04-22T13:57:33.025Z,100568.50
2023-04-22T13:59:59.947Z,100556.84
2023-04-22T14:02:26.700Z,100550.13
2023-04-22T14:04:53.457Z,100547.34
2023-04-22T14:07:20.127Z,100541.34
2023-04-22T14:09:46.753Z,100500.53
2023-04-22T14:12:13.547Z,100525.84
2023-04-22T14:14:40.321Z,100533.03
2023-04-22T14:17:07.149Z,100527.03
2023-04-22T14:19:33.896Z,100526.50
2023-04-22T14:22:00.748Z,100420.34
2023-04-22T14:24:27.778Z,100502.53
2023-04-22T14:26:55.183Z,100511.50
2023-04-22T14:29:21.885Z,100511.66
2023-04-22T14:31:50.008Z,100511.31
2023-04-22T14:34:17.251Z,100435.34
2023-04-22T14:36:44.313Z,100500.75
2023-04-22T14:39:11.111Z,100495.53
2023-04-22T14:41:37.773Z,100498.69
2023-04-22T14:44:04.762Z,100475.47
2023-04-22T14:46:31.353Z,100488.88
2023-04-22T14:48:58.022Z,100475.53
2023-04-22T14:51:24.953Z,100465.16
2023-04-22T14:53:51.762Z,100471.97
2023-04-22T14:56:18.395Z,100475.09
2023-04-22T14:58:45.032Z,100474.09
2023-04-22T15:01:11.771Z,100468.69
2023-04-22T15:03:38.559Z,100461.94
2023-04-22T15:06:05.568Z,100473.34
2023-04-22T15:08:32.235Z,100468.28
2023-04-22T15:11:00.007Z,100467.97
2023-04-22T15:13:26.815Z,100456.13
2023-04-22T15:15:53.882Z,100448.84
2023-04-22T15:18:21.680Z,100416.41
2023-04-22T15:20:48.311Z,100455.66
2023-04-22T15:23:15.037Z,100426.56
2023-04-22T15:25:41.944Z,100453.34
2023-04-22T15:28:08.690Z,100426.09
2023-04-22T15:30:35.686Z,100420.78
2023-04-22T15:33:02.563Z,100441.75
2023-04-22T15:35:29.369Z,100403.69
2023-04-22T15:37:58.347Z,100436.75
2023-04-22T15:40:25.000Z,100395.81
2023-04-22T15:42:51.597Z,100362.97
2023-04-22T15:45:18.301Z,100430.94
2023-04-22T15:47:45.041Z,100431.84
2023-04-22T15:50:11.862Z,100386.84
2023-04-22T15:52:39.224Z,100371.38
2023-04-22T15:55:07.798Z,100424.84
2023-04-22T15:57:35.426Z,100409.91
2023-04-22T16:00:11.765Z,100422.03
2023-04-22T16:02:40.235Z,100416.19
2023-04-22T16:05:07.354Z,100412.97
2023-04-22T16:07:33.959Z,100418.75
2023-04-22T16:10:00.585Z,100408.19
2023-04-22T16:12:27.207Z,100364.41
2023-04-22T16:14:53.746Z,100410.78
2023-04-22T16:17:21.085Z,100400.31
2023-04-22T16:19:47.832Z,100405.94
2023-04-22T16:22:14.496Z,100402.03
2023-04-22T16:24:43.731Z,100388.47
2023-04-22T16:27:13.263Z,100407.09
2023-04-22T16:29:40.168Z,100353.47
2023-04-22T16:32:08.051Z,100393.34
2023-04-22T16:34:36.024Z,100380.22
2023-04-22T16:37:02.827Z,100328.84
2023-04-22T16:39:29.397Z,100339.28
2023-04-22T16:41:56.031Z,100370.94
2023-04-22T16:44:22.763Z,100385.53
2023-04-22T16:46:49.364Z,100341.28
2023-04-22T16:49:15.963Z,100400.69
2023-04-22T16:51:42.598Z,100386.84
2023-04-22T16:54:09.258Z,100349.22
2023-04-22T16:56:36.081Z,100365.31
2023-04-22T16:59:02.743Z,100373.00
2023-04-22T17:01:30.174Z,100382.31
2023-04-22T17:03:57.645Z,100230.47
2023-04-22T17:06:24.674Z,100377.41
2023-04-22T17:08:52.723Z,100374.75
2023-04-22T17:11:19.764Z,100377.28
2023-04-22T17:13:46.437Z,100366.69
2023-04-22T17:16:13.182Z,100371.16
2023-04-22T17:18:40.000Z,100336.13
2023-04-22T17:21:06.673Z,100361.19
2023-04-22T17:23:33.328Z,100367.44
2023-04-22T17:26:00.134Z,100351.41
2023-04-22T17:28:26.944Z,100364.53
2023-04-22T17:30:53.613Z,100329.69
2023-04-22T17:33:20.216Z,100363.28
2023-04-22T17:35:47.024Z,100373.69
2023-04-22T17:38:14.300Z,100359.53
2023-04-22T17:40:41.100Z,100350.91
2023-04-22T17:43:07.750Z,100360.53
2023-04-22T17:45:34.356Z,100356.78
2023-04-22T17:48:00.961Z,100302.09
2023-04-22T17:50:27.586Z,100349.69
2023-04-22T17:52:54.431Z,100323.38
2023-04-22T17:55:21.034Z,100355.47
2023-04-22T17:57:47.753Z,100345.78
2023-04-22T18:00:14.851Z,100361.00
2023-04-22T18:02:42.018Z,100367.13
2023-04-22T18:05:09.345Z,100364.59
2023-04-22T18:07:36.350Z,100357.44
2023-04-22T18:10:02.934Z,100366.69
2023-04-22T18:12:30.938Z,100375.34
2023-04-22T18:14:58.677Z,100376.00
2023-04-22T18:17:25.308Z,100365.03
2023-04-22T18:19:56.025Z,100377.25
2023-04-22T18:22:29.947Z,100353.00
2023-04-22T18:24:57.684Z,100381.69
2023-04-22T18:27:24.404Z,100348.16
2023-04-22T18:29:51.548Z,100381.22
2023-04-22T18:32:18.615Z,100335.88
2023-04-22T18:34:45.348Z,100379.13
2023-04-22T18:37:12.244Z,100323.84
2023-04-22T18:39:39.631Z,100388.56
2023-04-22T18:42:06.436Z,100388.16
2023-04-22T18:44:33.177Z,100399.91
2023-04-22T18:46:59.735Z,100338.75
2023-04-22T18:49:26.641Z,100393.38
2023-04-22T18:51:53.257Z,100395.66
2023-04-22T18:54:19.975Z,100357.69
2023-04-22T18:56:46.582Z,100370.31
2023-04-22T18:59:13.352Z,100385.72
2023-04-22T19:01:40.015Z,100397.75
2023-04-22T19:04:08.155Z,100391.88
2023-04-22T19:06:34.920Z,100404.09
2023-04-22T19:09:01.845Z,100356.81
2023-04-22T19:11:28.600Z,100344.19
2023-04-22T19:13:55.185Z,100379.78
2023-04-22T19:16:23.631Z,100399.88
2023-04-22T19:18:51.820Z,100398.38
2023-04-22T19:21:19.906Z,100397.69
2023-04-22T19:23:47.169Z,100378.28
2023-04-22T19:26:13.833Z,100406.94
2023-04-22T19:28:47.136Z,100343.56
2023-04-22T19:31:14.740Z,100352.72
2023-04-22T19:33:41.749Z,100402.91
2023-04-22T19:36:08.513Z,100406.03
2023-04-22T19:38:35.354Z,100402.59
2023-04-22T19:41:02.654Z,100406.31
2023-04-22T19:43:29.733Z,100398.94
2023-04-22T19:45:56.470Z,100400.84
2023-04-22T19:48:24.291Z,100395.53
2023-04-22T19:50:51.091Z,100398.06
2023-04-22T19:53:18.666Z,100385.34
2023-04-22T19:55:46.752Z,100398.56
2023-04-22T19:58:14.471Z,100373.94
2023-04-22T20:00:42.850Z,100377.69
2023-04-22T20:03:10.350Z,100358.03
2023-04-22T20:05:37.620Z,100347.47
2023-04-22T20:08:07.768Z,100383.78
2023-04-22T20:10:34.971Z,100466.69
2023-04-22T20:13:04.052Z,100470.16
2023-04-22T20:15:31.258Z,100431.47
2023-04-22T20:17:58.179Z,100446.63
2023-04-22T20:20:25.265Z,100478.28
2023-04-22T20:22:53.985Z,100425.84
2023-04-22T20:25:21.226Z,100461.00
2023-04-22T20:27:48.862Z,100475.41
2023-04-22T20:30:16.072Z,100465.81
2023-04-22T20:32:42.796Z,100480.88
2023-04-22T20:35:15.272Z,100479.84
2023-04-22T20:37:42.035Z,100461.28
2023-04-22T20:40:09.333Z,100470.47
2023-04-22T20:42:37.122Z,100472.13
2023-04-22T20:45:05.672Z,100471.41
2023-04-22T20:47:32.674Z,100465.84
2023-04-22T20:49:59.603Z,100460.31
2023-04-22T20:52:26.696Z,100448.50
2023-04-22T20:54:56.696Z,100459.38
2023-04-22T20:57:23.853Z,100460.69
2023-04-22T20:59:50.759Z,100458.63
2023-04-22T21:02:17.827Z,100468.88
2023-04-22T21:04:44.782Z,100462.72
2023-04-22T21:07:14.497Z,100431.97
2023-04-22T21:09:41.696Z,100385.16
2023-04-22T21:12:10.889Z,100438.69
2023-04-22T21:14:43.505Z,100482.38
2023-04-22T21:17:38.945Z,100478.44
2023-04-22T21:20:06.491Z,100484.75
2023-04-22T21:22:33.159Z,100483.81
2023-04-22T21:25:01.245Z,100454.09
2023-04-22T21:27:28.131Z,100483.34
2023-04-22T21:29:55.425Z,100468.59
2023-04-22T21:32:22.057Z,100466.81
2023-04-22T21:34:48.923Z,100481.75
2023-04-22T21:37:15.659Z,100487.75
2023-04-22T21:39:42.441Z,100481.66
2023-04-22T21:42:09.202Z,100487.66
2023-04-22T21:44:37.328Z,100480.69
2023-04-22T21:47:04.798Z,100488.69
2023-04-22T21:49:31.794Z,100478.34
2023-04-22T21:51:59.155Z,100486.03
2023-04-22T21:54:25.848Z,100470.53
2023-04-22T21:56:52.515Z,100445.16
2023-04-22T21:59:19.209Z,100482.47
2023-04-22T22:01:46.016Z,100483.75
2023-04-22T22:04:15.376Z,100479.91
2023-04-22T22:06:42.919Z,100468.16
2023-04-22T22:09:09.654Z,100491.09
2023-04-22T22:11:36.317Z,100373.63
2023-04-22T22:14:03.273Z,100489.88
2023-04-22T22:16:31.299Z,100499.34
2023-04-22T22:18:58.506Z,100488.81
2023-04-22T22:21:25.420Z,100490.16
2023-04-22T22:23:52.137Z,100490.41
2023-04-22T22:26:19.358Z,100495.00
2023-04-22T22:28:46.063Z,100502.16
2023-04-22T22:31:12.696Z,100444.75
2023-04-22T22:33:39.560Z,100497.53
2023-04-22T22:36:06.419Z,100501.97
2023-04-22T22:38:33.122Z,100496.75
2023-04-22T22:40:59.907Z,100439.03
2023-04-22T22:43:27.096Z,100487.94
2023-04-22T22:45:54.188Z,100456.66
2023-04-22T22:48:21.109Z,100494.13
2023-04-22T22:50:49.112Z,100447.19
2023-04-22T22:53:15.712Z,100487.88
2023-04-22T22:55:42.376Z,100473.59
2023-04-22T22:58:09.078Z,100479.88
2023-04-22T23:00:36.514Z,100469.44
2023-04-22T23:03:03.921Z,100483.31
2023-04-22T23:05:30.898Z,100471.69
2023-04-22T23:07:57.531Z,100478.44
2023-04-22T23:10:24.185Z,100412.22
2023-04-22T23:12:50.800Z,100443.94
2023-04-22T23:15:17.555Z,100481.34
2023-04-22T23:17:44.297Z,100474.56
2023-04-22T23:20:11.773Z,100473.88
2023-04-22T23:22:40.770Z,100432.06
2023-04-22T23:25:08.759Z,100474.06
2023-04-22T23:27:35.913Z,100483.38
2023-04-22T23:30:03.036Z,100428.66
2023-04-22T23:32:32.534Z,100472.19
2023-04-22T23:35:01.871Z,100471.44
2023-04-22T23:37:29.904Z,100464.34
2023-04-22T23:39:56.588Z,100472.53
2023-04-22T23:42:23.221Z,100471.16
2023-04-22T23:44:49.927Z,100447.38
2023-04-22T23:47:17.196Z,100467.72
2023-04-22T23:49:43.896Z,100381.34
2023-04-22T23:52:13.107Z,100462.59
2023-04-22T23:54:41.516Z,100450.38
2023-04-22T23:57:08.706Z,100431.88
2023-04-22T23:59:35.830Z,100466.25
